sensor_id;sensor_type;location;lat;lon;timestamp;P1;durP1;ratioP1;P2;durP2;ratioP2
71423;SDS011;59240;51.370;-0.486;2023-04-08T00:02:12;12.45;;;4.70;;
71423;SDS011;59240;51.370;-0.486;2023-04-08T00:04:39;12.07;;;4.53;;
71423;SDS011;59240;51.370;-0.486;2023-04-08T00:07:06;11.00;;;3.90;;
71423;SDS011;59240;51.370;-0.486;2023-04-08T00:09:33;13.13;;;4.20;;
71423;SDS011;59240;51.370;-0.486;2023-04-08T00:12:00;13.88;;;4.60;;
71423;SDS011;59240;51.370;-0.486;2023-04-08T00:14:27;13.48;;;4.35;;
71423;SDS011;59240;51.370;-0.486;2023-04-08T00:16:53;10.18;;;3.67;;
71423;SDS011;59240;51.370;-0.486;2023-04-08T00:19:21;11.23;;;3.70;;
71423;SDS011;59240;51.370;-0.486;2023-04-08T00:21:47;11.27;;;3.78;;
71423;SDS011;59240;51.370;-0.486;2023-04-08T00:24:14;10.95;;;3.70;;
71423;SDS011;59240;51.370;-0.486;2023-04-08T00:26:41;11.75;;;3.80;;
71423;SDS011;59240;51.370;-0.486;2023-04-08T00:29:08;11.85;;;4.07;;
71423;SDS011;59240;51.370;-0.486;2023-04-08T00:31:35;10.87;;;4.00;;
71423;SDS011;59240;51.370;-0.486;2023-04-08T00:34:03;10.00;;;3.70;;
71423;SDS011;59240;51.370;-0.486;2023-04-08T00:36:30;10.88;;;3.33;;
71423;SDS011;59240;51.370;-0.486;2023-04-08T00:38:56;14.10;;;4.22;;
71423;SDS011;59240;51.370;-0.486;2023-04-08T00:41:23;11.75;;;4.90;;
71423;SDS011;59240;51.370;-0.486;2023-04-08T00:43:50;13.30;;;4.60;;
71423;SDS011;59240;51.370;-0.486;2023-04-08T00:46:17;14.73;;;5.00;;
71423;SDS011;59240;51.370;-0.486;2023-04-08T00:48:44;15.80;;;5.00;;
71423;SDS011;59240;51.370;-0.486;2023-04-08T00:51:11;11.18;;;3.95;;
71423;SDS011;59240;51.370;-0.486;2023-04-08T00:53:38;12.55;;;4.55;;
71423;SDS011;59240;51.370;-0.486;2023-04-08T00:56:05;9.17;;;3.57;;
71423;SDS011;59240;51.370;-0.486;2023-04-08T00:58:31;10.75;;;4.13;;
71423;SDS011;59240;51.370;-0.486;2023-04-08T01:00:59;11.43;;;3.90;;
71423;SDS011;59240;51.370;-0.486;2023-04-08T01:06:30;12.55;;;3.83;;
71423;SDS011;59240;51.370;-0.486;2023-04-08T01:09:08;12.10;;;3.83;;
71423;SDS011;59240;51.370;-0.486;2023-04-08T01:11:37;13.85;;;3.63;;
71423;SDS011;59240;51.370;-0.486;2023-04-08T01:14:09;10.38;;;3.97;;
71423;SDS011;59240;51.370;-0.486;2023-04-08T01:16:41;10.68;;;3.60;;
71423;SDS011;59240;51.370;-0.486;2023-04-08T01:19:12;13.13;;;4.30;;
71423;SDS011;59240;51.370;-0.486;2023-04-08T01:22:23;10.63;;;4.13;;
71423;SDS011;59240;51.370;-0.486;2023-04-08T01:25:07;9.80;;;3.65;;
71423;SDS011;59240;51.370;-0.486;2023-04-08T01:27:40;12.15;;;3.75;;
71423;SDS011;59240;51.370;-0.486;2023-04-08T01:30:08;12.98;;;4.20;;
71423;SDS011;59240;51.370;-0.486;2023-04-08T01:32:36;9.80;;;3.80;;
71423;SDS011;59240;51.370;-0.486;2023-04-08T01:35:05;9.63;;;3.67;;
71423;SDS011;59240;51.370;-0.486;2023-04-08T01:37:33;9.57;;;3.83;;
71423;SDS011;59240;51.370;-0.486;2023-04-08T01:40:01;14.45;;;4.05;;
71423;SDS011;59240;51.370;-0.486;2023-04-08T01:42:28;12.15;;;4.13;;
71423;SDS011;59240;51.370;-0.486;2023-04-08T01:44:57;12.55;;;3.83;;
71423;SDS011;59240;51.370;-0.486;2023-04-08T01:47:24;14.07;;;5.00;;
71423;SDS011;59240;51.370;-0.486;2023-04-08T01:49:52;13.20;;;3.90;;
71423;SDS011;59240;51.370;-0.486;2023-04-08T01:52:19;11.45;;;4.43;;
71423;SDS011;59240;51.370;-0.486;2023-04-08T01:54:47;10.82;;;3.97;;
71423;SDS011;59240;51.370;-0.486;2023-04-08T01:57:16;11.77;;;4.25;;
71423;SDS011;59240;51.370;-0.486;2023-04-08T01:59:49;12.40;;;4.17;;
71423;SDS011;59240;51.370;-0.486;2023-04-08T02:02:19;12.80;;;4.20;;
71423;SDS011;59240;51.370;-0.486;2023-04-08T02:04:48;12.18;;;4.40;;
71423;SDS011;59240;51.370;-0.486;2023-04-08T02:07:15;10.55;;;4.07;;
71423;SDS011;59240;51.370;-0.486;2023-04-08T02:09:43;11.77;;;4.50;;
71423;SDS011;59240;51.370;-0.486;2023-04-08T02:12:09;11.50;;;4.30;;
71423;SDS011;59240;51.370;-0.486;2023-04-08T02:14:37;14.32;;;4.38;;
71423;SDS011;59240;51.370;-0.486;2023-04-08T02:17:15;12.13;;;3.95;;
71423;SDS011;59240;51.370;-0.486;2023-04-08T02:19:55;11.30;;;4.25;;
71423;SDS011;59240;51.370;-0.486;2023-04-08T02:22:30;11.20;;;3.88;;
71423;SDS011;59240;51.370;-0.486;2023-04-08T02:25:14;13.27;;;4.43;;
71423;SDS011;59240;51.370;-0.486;2023-04-08T02:27:42;9.98;;;4.20;;
71423;SDS011;59240;51.370;-0.486;2023-04-08T02:30:11;12.18;;;4.40;;
71423;SDS011;59240;51.370;-0.486;2023-04-08T02:32:39;11.07;;;3.83;;
71423;SDS011;59240;51.370;-0.486;2023-04-08T02:35:07;12.50;;;4.68;;
71423;SDS011;59240;51.370;-0.486;2023-04-08T02:37:37;12.00;;;4.00;;
71423;SDS011;59240;51.370;-0.486;2023-04-08T02:40:20;13.90;;;4.20;;
71423;SDS011;59240;51.370;-0.486;2023-04-08T02:42:52;11.05;;;4.50;;
71423;SDS011;59240;51.370;-0.486;2023-04-08T02:45:19;12.05;;;4.22;;
71423;SDS011;59240;51.370;-0.486;2023-04-08T02:47:46;11.95;;;4.47;;
71423;SDS011;59240;51.370;-0.486;2023-04-08T02:50:13;13.83;;;4.00;;
71423;SDS011;59240;51.370;-0.486;2023-04-08T02:52:40;11.75;;;3.78;;
71423;SDS011;59240;51.370;-0.486;2023-04-08T02:55:09;11.20;;;4.18;;
71423;SDS011;59240;51.370;-0.486;2023-04-08T02:57:36;13.98;;;4.18;;
71423;SDS011;59240;51.370;-0.486;2023-04-08T03:00:04;10.82;;;3.60;;
71423;SDS011;59240;51.370;-0.486;2023-04-08T03:02:32;16.97;;;4.53;;
71423;SDS011;59240;51.370;-0.486;2023-04-08T03:04:59;10.57;;;3.95;;
71423;SDS011;59240;51.370;-0.486;2023-04-08T03:07:26;16.45;;;4.53;;
71423;SDS011;59240;51.370;-0.486;2023-04-08T03:09:53;11.15;;;4.57;;
71423;SDS011;59240;51.370;-0.486;2023-04-08T03:12:21;11.40;;;4.00;;
71423;SDS011;59240;51.370;-0.486;2023-04-08T03:14:48;18.17;;;4.53;;
71423;SDS011;59240;51.370;-0.486;2023-04-08T03:17:16;11.60;;;4.28;;
71423;SDS011;59240;51.370;-0.486;2023-04-08T03:19:42;13.43;;;4.65;;
71423;SDS011;59240;51.370;-0.486;2023-04-08T03:22:09;13.70;;;4.55;;
71423;SDS011;59240;51.370;-0.486;2023-04-08T03:24:36;13.88;;;4.28;;
71423;SDS011;59240;51.370;-0.486;2023-04-08T03:27:03;11.30;;;4.73;;
71423;SDS011;59240;51.370;-0.486;2023-04-08T03:29:29;16.58;;;4.40;;
71423;SDS011;59240;51.370;-0.486;2023-04-08T03:31:56;13.35;;;4.70;;
71423;SDS011;59240;51.370;-0.486;2023-04-08T03:34:23;13.13;;;4.65;;
71423;SDS011;59240;51.370;-0.486;2023-04-08T03:36:50;13.60;;;4.60;;
71423;SDS011;59240;51.370;-0.486;2023-04-08T03:39:16;12.17;;;4.03;;
71423;SDS011;59240;51.370;-0.486;2023-04-08T03:41:43;14.88;;;4.30;;
71423;SDS011;59240;51.370;-0.486;2023-04-08T03:44:09;12.50;;;4.45;;
71423;SDS011;59240;51.370;-0.486;2023-04-08T03:46:36;12.75;;;4.10;;
71423;SDS011;59240;51.370;-0.486;2023-04-08T03:49:03;11.43;;;3.63;;
71423;SDS011;59240;51.370;-0.486;2023-04-08T03:51:30;13.00;;;4.20;;
71423;SDS011;59240;51.370;-0.486;2023-04-08T03:53:58;15.50;;;4.03;;
71423;SDS011;59240;51.370;-0.486;2023-04-08T03:56:24;12.40;;;4.07;;
71423;SDS011;59240;51.370;-0.486;2023-04-08T03:58:51;11.95;;;3.53;;
71423;SDS011;59240;51.370;-0.486;2023-04-08T04:01:18;12.85;;;3.92;;
71423;SDS011;59240;51.370;-0.486;2023-04-08T04:03:45;9.37;;;3.77;;
71423;SDS011;59240;51.370;-0.486;2023-04-08T04:06:11;10.50;;;4.20;;
71423;SDS011;59240;51.370;-0.486;2023-04-08T04:08:38;12.68;;;4.53;;
71423;SDS011;59240;51.370;-0.486;2023-04-08T04:11:05;10.77;;;4.05;;
71423;SDS011;59240;51.370;-0.486;2023-04-08T04:13:31;11.27;;;3.67;;
71423;SDS011;59240;51.370;-0.486;2023-04-08T04:15:58;9.70;;;3.30;;
71423;SDS011;59240;51.370;-0.486;2023-04-08T04:18:25;9.57;;;3.15;;
71423;SDS011;59240;51.370;-0.486;2023-04-08T04:20:51;10.10;;;3.78;;
71423;SDS011;59240;51.370;-0.486;2023-04-08T04:23:18;12.30;;;3.58;;
71423;SDS011;59240;51.370;-0.486;2023-04-08T04:25:45;9.27;;;3.78;;
71423;SDS011;59240;51.370;-0.486;2023-04-08T04:28:11;11.27;;;3.90;;
71423;SDS011;59240;51.370;-0.486;2023-04-08T04:30:39;11.55;;;4.20;;
71423;SDS011;59240;51.370;-0.486;2023-04-08T04:33:05;10.43;;;3.80;;
71423;SDS011;59240;51.370;-0.486;2023-04-08T04:35:33;9.95;;;3.95;;
71423;SDS011;59240;51.370;-0.486;2023-04-08T04:38:00;9.65;;;4.00;;
71423;SDS011;59240;51.370;-0.486;2023-04-08T04:40:26;9.47;;;3.73;;
71423;SDS011;59240;51.370;-0.486;2023-04-08T04:42:53;10.55;;;3.78;;
71423;SDS011;59240;51.370;-0.486;2023-04-08T04:45:21;14.27;;;4.55;;
71423;SDS011;59240;51.370;-0.486;2023-04-08T04:47:47;12.25;;;4.45;;
71423;SDS011;59240;51.370;-0.486;2023-04-08T04:50:14;9.82;;;4.07;;
71423;SDS011;59240;51.370;-0.486;2023-04-08T04:52:41;11.10;;;4.27;;
71423;SDS011;59240;51.370;-0.486;2023-04-08T04:55:08;17.25;;;3.92;;
71423;SDS011;59240;51.370;-0.486;2023-04-08T04:57:35;13.13;;;5.00;;
71423;SDS011;59240;51.370;-0.486;2023-04-08T05:00:01;12.68;;;4.20;;
71423;SDS011;59240;51.370;-0.486;2023-04-08T05:02:30;14.05;;;4.28;;
71423;SDS011;59240;51.370;-0.486;2023-04-08T05:04:57;9.60;;;4.07;;
71423;SDS011;59240;51.370;-0.486;2023-04-08T05:07:24;10.98;;;4.40;;
71423;SDS011;59240;51.370;-0.486;2023-04-08T05:09:51;12.48;;;3.95;;
71423;SDS011;59240;51.370;-0.486;2023-04-08T05:12:19;10.43;;;3.92;;
71423;SDS011;59240;51.370;-0.486;2023-04-08T05:14:46;11.98;;;4.47;;
71423;SDS011;59240;51.370;-0.486;2023-04-08T05:17:13;10.67;;;3.87;;
71423;SDS011;59240;51.370;-0.486;2023-04-08T05:19:39;13.32;;;4.45;;
71423;SDS011;59240;51.370;-0.486;2023-04-08T05:22:06;10.52;;;4.30;;
71423;SDS011;59240;51.370;-0.486;2023-04-08T05:24:32;12.95;;;4.10;;
71423;SDS011;59240;51.370;-0.486;2023-04-08T05:26:59;10.48;;;4.25;;
71423;SDS011;59240;51.370;-0.486;2023-04-08T05:29:26;13.93;;;4.60;;
71423;SDS011;59240;51.370;-0.486;2023-04-08T05:31:53;10.93;;;3.92;;
71423;SDS011;59240;51.370;-0.486;2023-04-08T05:34:21;11.75;;;4.38;;
71423;SDS011;59240;51.370;-0.486;2023-04-08T05:36:48;11.48;;;4.00;;
71423;SDS011;59240;51.370;-0.486;2023-04-08T05:39:18;14.40;;;4.45;;
71423;SDS011;59240;51.370;-0.486;2023-04-08T05:41:45;12.30;;;3.97;;
71423;SDS011;59240;51.370;-0.486;2023-04-08T05:44:15;12.80;;;3.97;;
71423;SDS011;59240;51.370;-0.486;2023-04-08T05:46:41;10.77;;;4.40;;
71423;SDS011;59240;51.370;-0.486;2023-04-08T05:49:08;12.20;;;4.57;;
71423;SDS011;59240;51.370;-0.486;2023-04-08T05:51:35;14.18;;;5.63;;
71423;SDS011;59240;51.370;-0.486;2023-04-08T05:54:01;11.63;;;3.90;;
71423;SDS011;59240;51.370;-0.486;2023-04-08T05:56:28;10.07;;;4.22;;
71423;SDS011;59240;51.370;-0.486;2023-04-08T05:58:58;11.45;;;4.40;;
71423;SDS011;59240;51.370;-0.486;2023-04-08T06:01:25;15.32;;;4.53;;
71423;SDS011;59240;51.370;-0.486;2023-04-08T06:03:52;10.00;;;4.07;;
71423;SDS011;59240;51.370;-0.486;2023-04-08T06:06:22;12.27;;;4.50;;
71423;SDS011;59240;51.370;-0.486;2023-04-08T06:08:51;12.98;;;4.38;;
71423;SDS011;59240;51.370;-0.486;2023-04-08T06:11:18;11.02;;;4.88;;
71423;SDS011;59240;51.370;-0.486;2023-04-08T06:13:48;11.77;;;4.50;;
71423;SDS011;59240;51.370;-0.486;2023-04-08T06:16:15;13.68;;;5.43;;
71423;SDS011;59240;51.370;-0.486;2023-04-08T06:18:46;10.93;;;5.03;;
71423;SDS011;59240;51.370;-0.486;2023-04-08T06:21:15;14.30;;;5.28;;
71423;SDS011;59240;51.370;-0.486;2023-04-08T06:23:42;16.98;;;5.32;;
71423;SDS011;59240;51.370;-0.486;2023-04-08T06:26:11;12.35;;;5.55;;
71423;SDS011;59240;51.370;-0.486;2023-04-08T06:28:41;16.52;;;5.32;;
71423;SDS011;59240;51.370;-0.486;2023-04-08T06:31:07;10.63;;;5.10;;
71423;SDS011;59240;51.370;-0.486;2023-04-08T06:33:38;12.15;;;5.30;;
71423;SDS011;59240;51.370;-0.486;2023-04-08T06:36:06;11.27;;;5.28;;
71423;SDS011;59240;51.370;-0.486;2023-04-08T06:38:33;16.05;;;5.80;;
71423;SDS011;59240;51.370;-0.486;2023-04-08T06:41:01;13.35;;;5.90;;
71423;SDS011;59240;51.370;-0.486;2023-04-08T06:43:28;14.53;;;5.63;;
71423;SDS011;59240;51.370;-0.486;2023-04-08T06:45:56;15.45;;;5.43;;
71423;SDS011;59240;51.370;-0.486;2023-04-08T06:48:23;14.32;;;5.25;;
71423;SDS011;59240;51.370;-0.486;2023-04-08T06:50:59;16.23;;;5.88;;
71423;SDS011;59240;51.370;-0.486;2023-04-08T06:53:26;16.25;;;6.05;;
71423;SDS011;59240;51.370;-0.486;2023-04-08T06:55:58;13.07;;;6.17;;
71423;SDS011;59240;51.370;-0.486;2023-04-08T06:58:28;14.73;;;5.22;;
71423;SDS011;59240;51.370;-0.486;2023-04-08T07:00:55;15.30;;;5.68;;
71423;SDS011;59240;51.370;-0.486;2023-04-08T07:03:22;13.07;;;5.35;;
71423;SDS011;59240;51.370;-0.486;2023-04-08T07:05:51;13.02;;;5.72;;
71423;SDS011;59240;51.370;-0.486;2023-04-08T07:08:31;15.30;;;6.33;;
71423;SDS011;59240;51.370;-0.486;2023-04-08T07:10:58;17.15;;;6.38;;
71423;SDS011;59240;51.370;-0.486;2023-04-08T07:13:25;14.50;;;6.30;;
71423;SDS011;59240;51.370;-0.486;2023-04-08T07:15:52;15.55;;;6.30;;
71423;SDS011;59240;51.370;-0.486;2023-04-08T07:18:18;18.05;;;6.10;;
71423;SDS011;59240;51.370;-0.486;2023-04-08T07:20:50;12.27;;;5.50;;
71423;SDS011;59240;51.370;-0.486;2023-04-08T07:23:19;18.33;;;6.97;;
71423;SDS011;59240;51.370;-0.486;2023-04-08T07:25:49;14.55;;;6.68;;
71423;SDS011;59240;51.370;-0.486;2023-04-08T07:28:15;16.63;;;6.93;;
71423;SDS011;59240;51.370;-0.486;2023-04-08T07:30:42;17.83;;;8.10;;
71423;SDS011;59240;51.370;-0.486;2023-04-08T07:33:09;15.90;;;6.60;;
71423;SDS011;59240;51.370;-0.486;2023-04-08T07:35:36;17.08;;;6.53;;
71423;SDS011;59240;51.370;-0.486;2023-04-08T07:38:10;16.48;;;6.80;;
71423;SDS011;59240;51.370;-0.486;2023-04-08T07:40:44;15.80;;;6.53;;
71423;SDS011;59240;51.370;-0.486;2023-04-08T07:43:11;15.68;;;7.22;;
71423;SDS011;59240;51.370;-0.486;2023-04-08T07:45:38;17.00;;;6.33;;
71423;SDS011;59240;51.370;-0.486;2023-04-08T07:48:07;19.83;;;7.05;;
71423;SDS011;59240;51.370;-0.486;2023-04-08T07:50:55;15.20;;;6.80;;
71423;SDS011;59240;51.370;-0.486;2023-04-08T07:53:35;15.98;;;6.57;;
71423;SDS011;59240;51.370;-0.486;2023-04-08T07:56:02;18.50;;;7.22;;
71423;SDS011;59240;51.370;-0.486;2023-04-08T07:58:40;17.67;;;6.93;;
71423;SDS011;59240;51.370;-0.486;2023-04-08T08:01:17;16.02;;;6.95;;
71423;SDS011;59240;51.370;-0.486;2023-04-08T08:03:47;15.52;;;6.28;;
71423;SDS011;59240;51.370;-0.486;2023-04-08T08:06:21;15.60;;;6.30;;
71423;SDS011;59240;51.370;-0.486;2023-04-08T08:08:52;13.60;;;6.05;;
71423;SDS011;59240;51.370;-0.486;2023-04-08T08:11:25;14.30;;;6.13;;
71423;SDS011;59240;51.370;-0.486;2023-04-08T08:14:11;15.13;;;6.28;;
71423;SDS011;59240;51.370;-0.486;2023-04-08T08:17:19;13.68;;;5.65;;
71423;SDS011;59240;51.370;-0.486;2023-04-08T08:20:00;15.10;;;4.90;;
71423;SDS011;59240;51.370;-0.486;2023-04-08T08:22:37;13.15;;;5.70;;
71423;SDS011;59240;51.370;-0.486;2023-04-08T08:25:35;14.20;;;5.17;;
71423;SDS011;59240;51.370;-0.486;2023-04-08T08:28:34;14.48;;;5.53;;
71423;SDS011;59240;51.370;-0.486;2023-04-08T08:32:11;12.95;;;5.35;;
71423;SDS011;59240;51.370;-0.486;2023-04-08T08:38:40;13.73;;;5.50;;
71423;SDS011;59240;51.370;-0.486;2023-04-08T08:41:19;15.17;;;5.50;;
71423;SDS011;59240;51.370;-0.486;2023-04-08T08:44:28;15.15;;;5.05;;
71423;SDS011;59240;51.370;-0.486;2023-04-08T08:47:49;14.68;;;5.90;;
71423;SDS011;59240;51.370;-0.486;2023-04-08T08:56:22;13.10;;;5.10;;
71423;SDS011;59240;51.370;-0.486;2023-04-08T08:59:34;14.17;;;5.20;;
71423;SDS011;59240;51.370;-0.486;2023-04-08T09:02:05;13.27;;;5.38;;
71423;SDS011;59240;51.370;-0.486;2023-04-08T09:05:01;14.10;;;5.68;;
71423;SDS011;59240;51.370;-0.486;2023-04-08T09:07:57;11.77;;;4.83;;
71423;SDS011;59240;51.370;-0.486;2023-04-08T09:10:45;14.90;;;4.68;;
71423;SDS011;59240;51.370;-0.486;2023-04-08T09:13:37;11.38;;;4.13;;
71423;SDS011;59240;51.370;-0.486;2023-04-08T09:16:40;9.02;;;3.33;;
71423;SDS011;59240;51.370;-0.486;2023-04-08T09:19:34;10.48;;;4.05;;
71423;SDS011;59240;51.370;-0.486;2023-04-08T09:22:08;10.43;;;4.47;;
71423;SDS011;59240;51.370;-0.486;2023-04-08T09:24:52;10.65;;;4.25;;
71423;SDS011;59240;51.370;-0.486;2023-04-08T09:28:07;12.15;;;4.30;;
71423;SDS011;59240;51.370;-0.486;2023-04-08T09:43:37;9.10;;;2.95;;
71423;SDS011;59240;51.370;-0.486;2023-04-08T10:13:02;8.97;;;3.70;;
71423;SDS011;59240;51.370;-0.486;2023-04-08T10:52:18;8.47;;;2.90;;
71423;SDS011;59240;51.370;-0.486;2023-04-08T10:55:03;8.70;;;3.40;;
71423;SDS011;59240;51.370;-0.486;2023-04-08T11:12:43;9.30;;;3.40;;
71423;SDS011;59240;51.370;-0.486;2023-04-08T11:20:16;9.20;;;3.25;;
71423;SDS011;59240;51.370;-0.486;2023-04-08T11:31:13;10.70;;;3.70;;
71423;SDS011;59240;51.370;-0.486;2023-04-08T11:35:05;9.33;;;3.63;;
71423;SDS011;59240;51.370;-0.486;2023-04-08T11:37:42;8.80;;;3.42;;
71423;SDS011;59240;51.370;-0.486;2023-04-08T11:45:49;8.60;;;3.55;;
71423;SDS011;59240;51.370;-0.486;2023-04-08T11:56:45;10.02;;;3.95;;
71423;SDS011;59240;51.370;-0.486;2023-04-08T12:00:00;11.05;;;3.83;;
71423;SDS011;59240;51.370;-0.486;2023-04-08T12:16:36;8.38;;;3.10;;
71423;SDS011;59240;51.370;-0.486;2023-04-08T12:24:52;7.17;;;3.03;;
71423;SDS011;59240;51.370;-0.486;2023-04-08T12:27:28;7.95;;;3.38;;
71423;SDS011;59240;51.370;-0.486;2023-04-08T12:30:11;7.97;;;3.22;;
71423;SDS011;59240;51.370;-0.486;2023-04-08T12:58:09;8.55;;;2.67;;
71423;SDS011;59240;51.370;-0.486;2023-04-08T13:01:15;8.40;;;2.87;;
71423;SDS011;59240;51.370;-0.486;2023-04-08T13:08:38;9.07;;;2.88;;
71423;SDS011;59240;51.370;-0.486;2023-04-08T13:22:55;11.07;;;2.97;;
71423;SDS011;59240;51.370;-0.486;2023-04-08T13:34:02;7.05;;;2.83;;
71423;SDS011;59240;51.370;-0.486;2023-04-08T14:25:45;9.73;;;3.08;;
71423;SDS011;59240;51.370;-0.486;2023-04-08T14:28:49;8.20;;;2.70;;
71423;SDS011;59240;51.370;-0.486;2023-04-08T14:32:43;8.32;;;2.50;;
71423;SDS011;59240;51.370;-0.486;2023-04-08T14:40:08;7.65;;;2.40;;
71423;SDS011;59240;51.370;-0.486;2023-04-08T15:15:58;7.97;;;2.35;;
71423;SDS011;59240;51.370;-0.486;2023-04-08T15:18:55;6.40;;;2.00;;
71423;SDS011;59240;51.370;-0.486;2023-04-08T15:57:18;8.38;;;2.15;;
71423;SDS011;59240;51.370;-0.486;2023-04-08T16:01:01;7.03;;;2.20;;
71423;SDS011;59240;51.370;-0.486;2023-04-08T16:26:19;7.00;;;2.47;;
71423;SDS011;59240;51.370;-0.486;2023-04-08T18:02:09;7.40;;;2.55;;
71423;SDS011;59240;51.370;-0.486;2023-04-08T18:13:07;7.78;;;2.40;;
71423;SDS011;59240;51.370;-0.486;2023-04-08T19:10:16;8.10;;;2.35;;
71423;SDS011;59240;51.370;-0.486;2023-04-08T19:22:20;12.35;;;4.90;;
71423;SDS011;59240;51.370;-0.486;2023-04-08T19:25:38;9.88;;;3.72;;
71423;SDS011;59240;51.370;-0.486;2023-04-08T19:33:13;11.20;;;4.47;;
71423;SDS011;59240;51.370;-0.486;2023-04-08T19:37:03;9.00;;;3.78;;
71423;SDS011;59240;51.370;-0.486;2023-04-08T19:45:32;7.60;;;2.85;;
71423;SDS011;59240;51.370;-0.486;2023-04-08T19:57:17;7.70;;;2.28;;
71423;SDS011;59240;51.370;-0.486;2023-04-08T20:17:47;5.53;;;1.80;;
71423;SDS011;59240;51.370;-0.486;2023-04-08T20:32:11;10.55;;;3.15;;
71423;SDS011;59240;51.370;-0.486;2023-04-08T20:35:14;9.05;;;2.78;;
71423;SDS011;59240;51.370;-0.486;2023-04-08T20:42:42;9.77;;;2.90;;
71423;SDS011;59240;51.370;-0.486;2023-04-08T21:02:15;7.68;;;2.78;;
71423;SDS011;59240;51.370;-0.486;2023-04-08T21:10:12;8.60;;;3.13;;
71423;SDS011;59240;51.370;-0.486;2023-04-08T21:19:33;10.15;;;3.75;;
71423;SDS011;59240;51.370;-0.486;2023-04-08T21:22:20;7.90;;;3.20;;
71423;SDS011;59240;51.370;-0.486;2023-04-08T21:25:06;9.02;;;3.80;;
71423;SDS011;59240;51.370;-0.486;2023-04-08T21:27:37;10.32;;;3.30;;
71423;SDS011;59240;51.370;-0.486;2023-04-08T21:30:14;7.75;;;3.22;;
71423;SDS011;59240;51.370;-0.486;2023-04-08T21:32:54;10.27;;;3.95;;
71423;SDS011;59240;51.370;-0.486;2023-04-08T21:35:21;13.47;;;3.97;;
71423;SDS011;59240;51.370;-0.486;2023-04-08T21:41:46;9.43;;;3.22;;
71423;SDS011;59240;51.370;-0.486;2023-04-08T21:44:45;8.00;;;3.67;;
71423;SDS011;59240;51.370;-0.486;2023-04-08T21:47:28;10.77;;;3.67;;
71423;SDS011;59240;51.370;-0.486;2023-04-08T21:53:17;9.02;;;3.60;;
71423;SDS011;59240;51.370;-0.486;2023-04-08T21:59:24;11.32;;;3.83;;
71423;SDS011;59240;51.370;-0.486;2023-04-08T22:02:16;10.05;;;3.42;;
71423;SDS011;59240;51.370;-0.486;2023-04-08T22:05:14;9.43;;;3.67;;
71423;SDS011;59240;51.370;-0.486;2023-04-08T22:12:19;9.32;;;4.20;;
71423;SDS011;59240;51.370;-0.486;2023-04-08T22:15:34;9.57;;;3.50;;
71423;SDS011;59240;51.370;-0.486;2023-04-08T22:27:20;9.63;;;3.58;;
71423;SDS011;59240;51.370;-0.486;2023-04-08T22:29:52;8.50;;;3.90;;
71423;SDS011;59240;51.370;-0.486;2023-04-08T22:32:21;10.85;;;4.63;;
71423;SDS011;59240;51.370;-0.486;2023-04-08T22:34:54;9.75;;;4.75;;
71423;SDS011;59240;51.370;-0.486;2023-04-08T22:37:24;11.63;;;4.53;;
71423;SDS011;59240;51.370;-0.486;2023-04-08T22:40:01;11.00;;;4.95;;
71423;SDS011;59240;51.370;-0.486;2023-04-08T22:42:48;10.93;;;5.25;;
71423;SDS011;59240;51.370;-0.486;2023-04-08T22:45:15;11.43;;;4.57;;
71423;SDS011;59240;51.370;-0.486;2023-04-08T22:47:45;9.75;;;4.85;;
71423;SDS011;59240;51.370;-0.486;2023-04-08T22:50:22;12.93;;;4.90;;
71423;SDS011;59240;51.370;-0.486;2023-04-08T22:52:50;10.10;;;4.72;;
71423;SDS011;59240;51.370;-0.486;2023-04-08T22:55:24;9.98;;;4.70;;
71423;SDS011;59240;51.370;-0.486;2023-04-08T22:57:55;11.80;;;4.28;;
71423;SDS011;59240;51.370;-0.486;2023-04-08T23:00:23;11.43;;;4.88;;
71423;SDS011;59240;51.370;-0.486;2023-04-08T23:02:51;10.20;;;4.20;;
71423;SDS011;59240;51.370;-0.486;2023-04-08T23:05:22;10.13;;;4.75;;
71423;SDS011;59240;51.370;-0.486;2023-04-08T23:07:51;10.10;;;4.47;;
71423;SDS011;59240;51.370;-0.486;2023-04-08T23:10:24;9.35;;;3.80;;
71423;SDS011;59240;51.370;-0.486;2023-04-08T23:12:51;12.20;;;4.78;;
71423;SDS011;59240;51.370;-0.486;2023-04-08T23:15:18;10.47;;;4.37;;
71423;SDS011;59240;51.370;-0.486;2023-04-08T23:17:45;14.07;;;4.75;;
71423;SDS011;59240;51.370;-0.486;2023-04-08T23:20:11;9.85;;;4.22;;
71423;SDS011;59240;51.370;-0.486;2023-04-08T23:22:38;10.77;;;4.13;;
71423;SDS011;59240;51.370;-0.486;2023-04-08T23:25:07;11.27;;;4.55;;
71423;SDS011;59240;51.370;-0.486;2023-04-08T23:27:35;11.27;;;4.23;;
71423;SDS011;59240;51.370;-0.486;2023-04-08T23:30:02;10.80;;;4.15;;
71423;SDS011;59240;51.370;-0.486;2023-04-08T23:32:47;11.48;;;4.53;;
71423;SDS011;59240;51.370;-0.486;2023-04-08T23:35:38;14.57;;;5.00;;
71423;SDS011;59240;51.370;-0.486;2023-04-08T23:38:07;11.52;;;4.35;;
71423;SDS011;59240;51.370;-0.486;2023-04-08T23:40:35;10.40;;;5.00;;
71423;SDS011;59240;51.370;-0.486;2023-04-08T23:43:02;11.80;;;5.20;;
71423;SDS011;59240;51.370;-0.486;2023-04-08T23:45:29;14.15;;;5.85;;
71423;SDS011;59240;51.370;-0.486;2023-04-08T23:48:04;12.70;;;5.55;;
71423;SDS011;59240;51.370;-0.486;2023-04-08T23:50:38;15.18;;;5.60;;
71423;SDS011;59240;51.370;-0.486;2023-04-08T23:53:06;14.47;;;5.60;;
71423;SDS011;59240;51.370;-0.486;2023-04-08T23:55:37;14.55;;;5.70;;
71423;SDS011;59240;51.370;-0.486;2023-04-08T23:58:04;14.75;;;5.72;;
